Eastham, MA (02642)

2:42 PM EST on December 05, 2016 (GMT -0500)
Muddy Pond | | Change Station

Elev 16 ft 41.83 °N, 69.98 °W | Updated 10 seconds ago

Light Rain
Light Rain Mist
40.3 °F
Feels Like 38 °F
N
4.0
Wind Variable Wind from South
Gusts 4.9 mph

Today
High -- | Low -- °F
--% Chance of Precip.
Yesterday
High -- | Low -- °F
Precip. -- in
Pressure 29.91 in
Visibility 4.0 miles
Clouds Overcast 800 ft
Windchill 38 °F
Dew Point 40 °F
Humidity 100%
Rainfall 0.00 in
Snow Depth Not available.
6:52 AM 4:09 PM
Waxing Crescent, 34% visible
SPECI KCQX 051939Z AUTO 17006KT 4SM -RA BR OVC008 07/06 A2991 RMK AO2 RAB19 CIG 005V012 P0000 T00670056
Pressure 29.91 in
Visibility 4.0 miles
Clouds Overcast 800 ft
Windchill 38 °F
Dew Point 40 °F
Humidity 100%
Rainfall 0.00 in
Snow Depth Not available.
6:52 AM 4:09 PM
Waxing Crescent, 34% visible
SPECI KCQX 051939Z AUTO 17006KT 4SM -RA BR OVC008 07/06 A2991 RMK AO2 RAB19 CIG 005V012 P0000 T00670056

10-Day Weather Forecast

Almanac

Astronomy

Dec. 05, 2016 Rise Set
Actual Time
Civil Twilight
Nautical Twilight
Astronomical Twilight
Moon
Length of Visible Light
Length of Day
Tomorrow will be .
, % of the Moon is Illuminated

Today's Extremes

State Highs State Lows

Community

WunderPhotos

Upload Photos

1,955,852 photos uploaded!

WunderBlog® & News

Nearby

Air Quality

  Air Quality AQ Index Pollutant
Not available.

Snow Depth

Station Depth Elevation

Earthquake Activity

City Distance Mag. Time & Date
Minimum magnitude displayed is 2.5.

Coastal Water Temperatures

Place Temperature

Stations

Nearby Weather Stations

Station Location Temp. Windchill Dew Point Humidity Wind Precip. Elev Updated Type
                   

Watches & Warnings

There are currently no watches in effect.